createdAt,value
2022-10-11T00:00:17.349Z,42.31
2022-10-11T00:05:19.211Z,42.22
2022-10-11T00:10:21.970Z,42.11
2022-10-11T00:15:24.038Z,41.99
2022-10-11T00:20:26.825Z,42.11
2022-10-11T00:25:28.812Z,42.04
2022-10-11T00:30:30.832Z,42.10
2022-10-11T00:35:32.608Z,42.28
2022-10-11T00:40:34.507Z,41.74
2022-10-11T00:45:36.127Z,41.86
2022-10-11T00:50:37.917Z,41.97
2022-10-11T00:55:47.676Z,42.04
2022-10-11T01:00:49.926Z,41.91
2022-10-11T01:05:52.177Z,41.56
2022-10-11T01:10:54.534Z,42.07
2022-10-11T01:16:14.055Z,41.68
2022-10-11T01:21:18.612Z,41.51
2022-10-11T01:26:58.151Z,41.52
2022-10-11T01:32:15.365Z,41.66
2022-10-11T01:37:24.513Z,41.71
2022-10-11T01:42:27.263Z,41.52
2022-10-11T01:47:29.027Z,41.48
2022-10-11T01:52:34.391Z,41.51
2022-10-11T01:58:11.341Z,41.51
2022-10-11T02:03:26.745Z,41.45
2022-10-11T02:08:54.075Z,41.35
2022-10-11T02:14:20.263Z,41.49
2022-10-11T02:19:29.147Z,41.36
2022-10-11T02:24:34.845Z,41.49
2022-10-11T02:29:39.882Z,41.53
2022-10-11T02:34:47.469Z,41.29
2022-10-11T02:39:54.070Z,41.16
2022-10-11T02:45:05.981Z,40.98
2022-10-11T02:50:08.372Z,41.49
2022-10-11T02:55:10.935Z,41.16
2022-10-11T03:00:13.922Z,40.89
2022-10-11T03:05:16.034Z,41.10
2022-10-11T03:10:17.856Z,41.21
2022-10-11T03:15:19.529Z,41.42
2022-10-11T03:20:21.410Z,41.15
2022-10-11T03:25:23.386Z,41.05
2022-10-11T03:30:25.248Z,40.99
2022-10-11T03:35:27.080Z,41.17
2022-10-11T03:40:28.998Z,41.13
2022-10-11T03:45:30.853Z,41.14
2022-10-11T03:50:32.911Z,41.23
2022-10-11T03:55:34.973Z,41.28
2022-10-11T04:00:37.018Z,41.05
2022-10-11T04:05:38.998Z,41.47
2022-10-11T04:10:41.120Z,41.27
2022-10-11T04:15:43.018Z,41.07
2022-10-11T04:20:44.849Z,41.08
2022-10-11T04:25:48.432Z,41.23
2022-10-11T04:30:51.992Z,41.02
2022-10-11T04:35:55.652Z,40.95
2022-10-11T04:41:09.530Z,40.93
2022-10-11T04:46:11.762Z,40.91
2022-10-11T04:51:13.748Z,40.73
2022-10-11T04:56:18.735Z,40.88
2022-10-11T05:01:21.545Z,40.65
2022-10-11T05:06:23.415Z,40.59
2022-10-11T05:11:25.558Z,40.70
2022-10-11T05:16:27.429Z,40.70
2022-10-11T05:21:30.845Z,40.50
2022-10-11T05:26:32.839Z,40.52
2022-10-11T05:31:34.666Z,40.42
2022-10-11T05:36:36.468Z,40.78
2022-10-11T05:41:38.361Z,40.53
2022-10-11T05:46:40.592Z,40.46
2022-10-11T05:51:42.446Z,40.35
2022-10-11T05:56:44.367Z,40.26
2022-10-11T06:01:46.562Z,40.35
2022-10-11T06:06:48.643Z,40.31
2022-10-11T06:11:50.757Z,40.46
2022-10-11T06:16:53.227Z,40.57
2022-10-11T06:21:55.123Z,40.44
2022-10-11T06:26:57.320Z,39.96
2022-10-11T06:31:59.367Z,40.33
2022-10-11T06:37:01.446Z,39.81
2022-10-11T06:42:03.270Z,39.79
2022-10-11T06:47:06.667Z,39.54
2022-10-11T06:52:09.458Z,39.75
2022-10-11T06:57:11.327Z,39.27
2022-10-11T07:02:13.083Z,39.79
2022-10-11T07:07:14.935Z,39.87
2022-10-11T07:12:17.455Z,40.36
2022-10-11T07:17:19.468Z,40.25
2022-10-11T07:22:21.593Z,39.79
2022-10-11T07:27:24.164Z,39.77
2022-10-11T07:32:26.044Z,39.82
2022-10-11T07:37:27.896Z,39.87
2022-10-11T07:42:29.918Z,40.23
2022-10-11T07:47:32.030Z,38.75
2022-10-11T07:52:35.602Z,38.95
2022-10-11T07:57:37.428Z,38.94
2022-10-11T08:02:39.384Z,39.09
2022-10-11T08:07:41.241Z,39.35
2022-10-11T08:12:43.130Z,39.07
2022-10-11T08:17:44.992Z,39.37
2022-10-11T08:22:46.908Z,39.36
2022-10-11T08:27:48.758Z,39.52
2022-10-11T08:32:50.654Z,39.11
2022-10-11T08:37:52.591Z,39.13
2022-10-11T08:43:08.410Z,39.34
2022-10-11T08:48:18.007Z,39.38
2022-10-11T08:53:34.093Z,39.35
2022-10-11T08:58:41.870Z,39.42
2022-10-11T09:03:46.747Z,39.68
2022-10-11T09:09:05.936Z,39.67
2022-10-11T09:14:32.124Z,39.77
2022-10-11T09:19:43.111Z,39.63
2022-10-11T09:25:16.118Z,39.94
2022-10-11T09:30:20.426Z,39.91
2022-10-11T09:35:23.118Z,39.90
2022-10-11T09:40:25.030Z,40.03
2022-10-11T09:45:27.057Z,39.84
2022-10-11T09:50:31.850Z,39.82
2022-10-11T09:55:47.277Z,40.31
2022-10-11T10:01:25.334Z,40.35
2022-10-11T10:06:28.778Z,40.24
2022-10-11T10:11:37.117Z,40.03
2022-10-11T10:16:38.965Z,40.50
2022-10-11T10:21:49.083Z,40.28
2022-10-11T10:27:21.246Z,40.29
2022-10-11T10:32:48.650Z,40.23
2022-10-11T10:38:05.760Z,40.36
2022-10-11T10:43:15.743Z,40.42
2022-10-11T10:49:11.778Z,40.26
2022-10-11T10:54:29.785Z,40.61
2022-10-11T10:59:40.858Z,40.35
2022-10-11T11:04:53.428Z,40.44
2022-10-11T11:10:13.613Z,40.33
2022-10-11T11:15:31.332Z,40.53
2022-10-11T11:20:57.900Z,40.50
2022-10-11T11:26:18.326Z,40.65
2022-10-11T11:31:52.615Z,40.68
2022-10-11T11:36:59.207Z,40.84
2022-10-11T11:42:17.205Z,40.55
2022-10-11T11:47:35.641Z,40.57
2022-10-11T11:52:44.329Z,40.60
2022-10-11T11:58:03.258Z,40.50
2022-10-11T12:03:16.826Z,40.76
2022-10-11T12:08:28.082Z,40.72
2022-10-11T12:13:38.359Z,40.55
2022-10-11T12:19:01.542Z,40.43
2022-10-11T12:24:23.493Z,40.50
2022-10-11T12:29:47.419Z,40.75
2022-10-11T12:34:49.495Z,40.74
2022-10-11T12:39:58.457Z,40.52
2022-10-11T12:45:13.118Z,40.28
2022-10-11T12:50:42.905Z,40.65
2022-10-11T12:56:12.886Z,40.38
2022-10-11T13:01:19.164Z,40.64
2022-10-11T13:06:47.476Z,40.36
2022-10-11T13:12:04.642Z,40.42
2022-10-11T13:17:26.591Z,40.20
2022-10-11T13:22:28.717Z,40.51
2022-10-11T13:27:30.623Z,40.30
2022-10-11T13:32:32.898Z,40.20
2022-10-11T13:37:52.878Z,40.28
2022-10-11T13:42:56.032Z,40.30
2022-10-11T13:47:58.616Z,40.51
2022-10-11T13:53:12.525Z,40.06
2022-10-11T13:58:23.466Z,41.55
2022-10-11T14:03:37.637Z,41.12
2022-10-11T14:08:42.470Z,40.87
2022-10-11T14:13:47.392Z,40.97
2022-10-11T14:19:08.716Z,41.09
2022-10-11T14:24:11.264Z,40.40
2022-10-11T14:29:26.569Z,40.76
2022-10-11T14:34:28.502Z,40.75
2022-10-11T14:39:32.651Z,40.88
2022-10-11T14:44:34.841Z,40.58
2022-10-11T14:49:38.160Z,39.87
2022-10-11T14:54:40.848Z,39.41
2022-10-11T14:59:42.716Z,39.12
2022-10-11T15:04:44.898Z,38.76
2022-10-11T15:09:46.632Z,38.85
2022-10-11T15:14:48.502Z,39.11
2022-10-11T15:19:51.035Z,39.12
2022-10-11T15:24:52.868Z,40.12
2022-10-11T15:29:54.963Z,39.65
2022-10-11T15:34:56.838Z,40.00
2022-10-11T15:39:58.661Z,40.06
2022-10-11T15:45:00.575Z,39.96
2022-10-11T15:50:02.385Z,40.16
2022-10-11T15:55:04.538Z,39.91
2022-10-11T16:00:06.903Z,40.11
2022-10-11T16:05:08.702Z,39.84
2022-10-11T16:10:10.618Z,40.37
2022-10-11T16:15:12.727Z,40.32
2022-10-11T16:20:14.911Z,40.39
2022-10-11T16:25:17.093Z,40.03
2022-10-11T16:30:20.214Z,40.66
2022-10-11T16:35:22.546Z,40.52
2022-10-11T16:40:26.249Z,40.29
2022-10-11T16:45:28.101Z,40.41
2022-10-11T16:50:30.103Z,40.28
2022-10-11T16:55:32.139Z,40.32
2022-10-11T17:00:34.211Z,40.38
2022-10-11T17:05:36.801Z,40.46
2022-10-11T17:10:44.734Z,40.24
2022-10-11T17:15:46.932Z,40.24
2022-10-11T17:20:49.288Z,40.17
2022-10-11T17:25:51.121Z,40.26
2022-10-11T17:30:57.812Z,40.81
2022-10-11T17:36:01.141Z,40.80
2022-10-11T17:41:05.530Z,40.72
2022-10-11T17:46:09.413Z,40.96
2022-10-11T17:51:14.422Z,41.23
2022-10-11T17:56:20.995Z,41.14
2022-10-11T18:01:29.384Z,40.95
2022-10-11T18:06:37.589Z,40.92
2022-10-11T18:11:39.334Z,40.77
2022-10-11T18:16:41.798Z,40.88
2022-10-11T18:21:43.769Z,40.55
2022-10-11T18:26:46.092Z,40.95
2022-10-11T18:31:48.252Z,40.99
2022-10-11T18:36:50.456Z,40.75
2022-10-11T18:41:52.300Z,40.65
2022-10-11T18:46:54.475Z,40.50
2022-10-11T18:51:56.596Z,40.54
2022-10-11T18:56:58.940Z,40.60
2022-10-11T19:02:00.937Z,40.67
2022-10-11T19:07:03.530Z,40.45
2022-10-11T19:12:05.720Z,40.34
2022-10-11T19:17:08.396Z,40.38
2022-10-11T19:22:10.327Z,40.64
2022-10-11T19:27:12.246Z,40.15
2022-10-11T19:32:14.008Z,40.33
2022-10-11T19:37:16.475Z,40.21
2022-10-11T19:42:18.285Z,40.04
2022-10-11T19:47:20.367Z,40.41
2022-10-11T19:52:22.598Z,40.27
2022-10-11T19:57:24.428Z,40.14
2022-10-11T20:02:26.104Z,40.44
2022-10-11T20:07:27.821Z,40.38
2022-10-11T20:12:29.852Z,39.73
2022-10-11T20:17:50.164Z,40.44
2022-10-11T20:22:53.658Z,40.29
2022-10-11T20:27:55.690Z,39.95
2022-10-11T20:32:57.572Z,39.94
2022-10-11T20:37:59.589Z,39.69
2022-10-11T20:43:01.590Z,39.81
2022-10-11T20:48:03.463Z,39.99
2022-10-11T20:53:05.310Z,39.83
2022-10-11T20:58:07.062Z,39.95
2022-10-11T21:03:09.249Z,40.63
2022-10-11T21:08:11.696Z,39.86
2022-10-11T21:13:13.409Z,40.13
2022-10-11T21:18:15.256Z,40.13
2022-10-11T21:23:19.027Z,39.79
2022-10-11T21:28:21.027Z,39.83
2022-10-11T21:33:22.780Z,40.22
2022-10-11T21:38:24.753Z,40.14
2022-10-11T21:43:26.777Z,40.26
2022-10-11T21:48:29.473Z,40.04
2022-10-11T21:53:31.458Z,39.89
2022-10-11T21:58:33.589Z,39.71
2022-10-11T22:03:35.429Z,39.99
2022-10-11T22:08:38.001Z,40.03
2022-10-11T22:13:39.876Z,39.81
2022-10-11T22:18:42.612Z,39.72
2022-10-11T22:23:47.124Z,40.09
2022-10-11T22:28:49.692Z,39.72
2022-10-11T22:33:56.035Z,39.97
2022-10-11T22:38:58.767Z,39.78
2022-10-11T22:44:00.744Z,40.04
2022-10-11T22:49:02.678Z,39.86
2022-10-11T22:54:04.655Z,39.97
2022-10-11T22:59:06.519Z,40.10
2022-10-11T23:04:08.623Z,39.94
2022-10-11T23:09:10.656Z,39.96
2022-10-11T23:14:12.677Z,39.88
2022-10-11T23:19:14.532Z,40.12
2022-10-11T23:24:16.483Z,40.35
2022-10-11T23:29:18.517Z,39.87
2022-10-11T23:34:20.338Z,40.13
2022-10-11T23:39:22.163Z,40.30
2022-10-11T23:44:24.086Z,40.09
2022-10-11T23:49:25.870Z,39.96
2022-10-11T23:54:27.839Z,39.90
2022-10-11T23:59:29.615Z,40.14
